Terminal Aerodrome Forecast
Issued by NWS

Home | Current Version | Previous Version | Graphics & Text | Print | Product List | Glossary On
Versions: 1 2 3 4 5 6 7 8 9 10 11 12 13 14 15 16 17 18 19 20 21 22 23 24 25 26 27 28 29 30 31
000
FTUS43 KLOT 290900 AAA
TAFORD
TAF AMD
KORD 290900Z 2909/3012 22006KT P6SM FEW020 BKN080
     FM291100 25008KT P6SM VCSH SCT020 OVC040
     FM291400 29011G16KT P6SM SCT020 BKN150
     FM291600 29012G19KT P6SM FEW250
     FM300100 27008KT P6SM FEW250=

USA.gov is the U.S. government's official web portal to all federal, state and local government web resources and services.